sensor_id;sensor_type;location;lat;lon;timestamp;pressure;altitude;pressure_sealevel;temperature;humidity
52719;BME280;38616;42.140;24.760;2022-11-20T00:01:11;99034.63;;;13.98;81.02
52719;BME280;38616;42.140;24.760;2022-11-20T00:03:37;99020.19;;;14.15;79.64
52719;BME280;38616;42.140;24.760;2022-11-20T00:06:08;99017.16;;;14.08;80.11
52719;BME280;38616;42.140;24.760;2022-11-20T00:08:34;99018.91;;;13.54;81.78
52719;BME280;38616;42.140;24.760;2022-11-20T00:11:10;99030.13;;;14.02;80.87
52719;BME280;38616;42.140;24.760;2022-11-20T00:13:36;99015.06;;;14.04;79.55
52719;BME280;38616;42.140;24.760;2022-11-20T00:16:04;99024.38;;;14.03;79.59
52719;BME280;38616;42.140;24.760;2022-11-20T00:18:30;99030.91;;;13.94;79.54
52719;BME280;38616;42.140;24.760;2022-11-20T00:21:04;99016.13;;;13.86;80.27
52719;BME280;38616;42.140;24.760;2022-11-20T00:23:31;99011.69;;;13.58;81.36
52719;BME280;38616;42.140;24.760;2022-11-20T00:25:56;99010.38;;;13.56;82.10
52719;BME280;38616;42.140;24.760;2022-11-20T00:28:22;99006.66;;;13.52;82.45
52719;BME280;38616;42.140;24.760;2022-11-20T00:30:47;99004.94;;;13.33;83.29
52719;BME280;38616;42.140;24.760;2022-11-20T00:33:12;99021.59;;;13.86;80.99
52719;BME280;38616;42.140;24.760;2022-11-20T00:35:38;99021.97;;;14.11;80.46
52719;BME280;38616;42.140;24.760;2022-11-20T00:38:03;99028.88;;;14.17;79.71
52719;BME280;38616;42.140;24.760;2022-11-20T00:40:29;99017.94;;;14.17;78.71
52719;BME280;38616;42.140;24.760;2022-11-20T00:42:54;99018.91;;;14.21;78.53
52719;BME280;38616;42.140;24.760;2022-11-20T00:45:20;99016.50;;;14.11;78.67
52719;BME280;38616;42.140;24.760;2022-11-20T00:47:45;98999.25;;;13.84;79.80
52719;BME280;38616;42.140;24.760;2022-11-20T00:50:10;99011.44;;;13.78;80.55
52719;BME280;38616;42.140;24.760;2022-11-20T00:52:36;99021.41;;;13.82;80.64
52719;BME280;38616;42.140;24.760;2022-11-20T00:55:01;99025.16;;;13.95;79.90
52719;BME280;38616;42.140;24.760;2022-11-20T00:57:27;99023.72;;;14.07;79.17
52719;BME280;38616;42.140;24.760;2022-11-20T00:59:52;99022.91;;;13.97;79.27
52719;BME280;38616;42.140;24.760;2022-11-20T01:02:17;99017.50;;;13.66;81.16
52719;BME280;38616;42.140;24.760;2022-11-20T01:04:43;99027.53;;;13.97;80.42
52719;BME280;38616;42.140;24.760;2022-11-20T01:07:08;99024.81;;;13.88;79.97
52719;BME280;38616;42.140;24.760;2022-11-20T01:09:33;99025.00;;;14.09;79.78
52719;BME280;38616;42.140;24.760;2022-11-20T01:11:59;99022.75;;;14.02;79.02
52719;BME280;38616;42.140;24.760;2022-11-20T01:14:25;99009.09;;;14.02;78.67
52719;BME280;38616;42.140;24.760;2022-11-20T01:16:51;99018.91;;;14.12;78.86
52719;BME280;38616;42.140;24.760;2022-11-20T01:19:22;99000.38;;;13.92;79.43
52719;BME280;38616;42.140;24.760;2022-11-20T01:21:50;99005.22;;;13.95;79.69
52719;BME280;38616;42.140;24.760;2022-11-20T01:24:19;98998.31;;;13.97;79.36
52719;BME280;38616;42.140;24.760;2022-11-20T01:26:46;99011.66;;;13.99;79.16
52719;BME280;38616;42.140;24.760;2022-11-20T01:29:15;98995.94;;;14.04;79.02
52719;BME280;38616;42.140;24.760;2022-11-20T01:31:41;98992.56;;;14.08;78.64
52719;BME280;38616;42.140;24.760;2022-11-20T01:34:09;98994.19;;;14.09;78.66
52719;BME280;38616;42.140;24.760;2022-11-20T01:36:36;98985.50;;;14.15;78.60
52719;BME280;38616;42.140;24.760;2022-11-20T01:39:04;98982.28;;;14.04;78.68
52719;BME280;38616;42.140;24.760;2022-11-20T01:41:31;98978.75;;;14.13;77.89
52719;BME280;38616;42.140;24.760;2022-11-20T01:44:19;98985.00;;;14.13;78.46
52719;BME280;38616;42.140;24.760;2022-11-20T01:46:59;98980.47;;;13.91;79.66
52719;BME280;38616;42.140;24.760;2022-11-20T01:49:43;98961.81;;;13.84;79.41
52719;BME280;38616;42.140;24.760;2022-11-20T01:52:32;98970.69;;;13.90;79.78
52719;BME280;38616;42.140;24.760;2022-11-20T01:55:03;98965.38;;;13.85;79.82
52719;BME280;38616;42.140;24.760;2022-11-20T01:57:33;98968.09;;;13.85;79.36
52719;BME280;38616;42.140;24.760;2022-11-20T02:00:07;98971.66;;;13.94;79.37
52719;BME280;38616;42.140;24.760;2022-11-20T02:02:34;98950.44;;;14.00;78.18
52719;BME280;38616;42.140;24.760;2022-11-20T02:05:46;98961.19;;;13.79;79.58
52719;BME280;38616;42.140;24.760;2022-11-20T02:07:52;98961.47;;;13.68;80.48
52719;BME280;38616;42.140;24.760;2022-11-20T02:10:19;98958.63;;;13.91;79.77
52719;BME280;38616;42.140;24.760;2022-11-20T02:12:45;98957.34;;;13.88;79.11
52719;BME280;38616;42.140;24.760;2022-11-20T02:15:29;98959.88;;;13.76;79.77
52719;BME280;38616;42.140;24.760;2022-11-20T02:17:57;98952.94;;;13.61;80.41
52719;BME280;38616;42.140;24.760;2022-11-20T02:20:22;98945.81;;;13.42;81.46
52719;BME280;38616;42.140;24.760;2022-11-20T02:22:58;98949.72;;;13.59;81.02
52719;BME280;38616;42.140;24.760;2022-11-20T02:25:26;98954.31;;;13.99;79.93
52719;BME280;38616;42.140;24.760;2022-11-20T02:27:52;98943.50;;;13.76;79.11
52719;BME280;38616;42.140;24.760;2022-11-20T02:30:18;98935.91;;;13.55;80.67
52719;BME280;38616;42.140;24.760;2022-11-20T02:32:43;98934.13;;;13.51;81.82
52719;BME280;38616;42.140;24.760;2022-11-20T02:35:09;98950.94;;;14.02;80.28
52719;BME280;38616;42.140;24.760;2022-11-20T02:37:37;98935.16;;;13.81;80.21
52719;BME280;38616;42.140;24.760;2022-11-20T02:40:04;98910.91;;;13.80;80.22
52719;BME280;38616;42.140;24.760;2022-11-20T02:42:29;98927.94;;;13.85;80.23
52719;BME280;38616;42.140;24.760;2022-11-20T02:44:55;98931.31;;;13.82;80.29
52719;BME280;38616;42.140;24.760;2022-11-20T02:47:20;98925.56;;;14.01;79.81
52719;BME280;38616;42.140;24.760;2022-11-20T02:49:45;98923.97;;;14.00;79.50
52719;BME280;38616;42.140;24.760;2022-11-20T02:52:11;98927.47;;;13.92;79.40
52719;BME280;38616;42.140;24.760;2022-11-20T02:54:36;98941.13;;;13.92;80.06
52719;BME280;38616;42.140;24.760;2022-11-20T02:57:02;98929.16;;;13.53;80.64
52719;BME280;38616;42.140;24.760;2022-11-20T02:59:27;98936.31;;;13.40;83.49
52719;BME280;38616;42.140;24.760;2022-11-20T03:01:52;98932.72;;;13.62;83.26
52719;BME280;38616;42.140;24.760;2022-11-20T03:04:18;98924.22;;;13.72;82.22
52719;BME280;38616;42.140;24.760;2022-11-20T03:06:43;98927.44;;;13.83;81.54
52719;BME280;38616;42.140;24.760;2022-11-20T03:09:09;98914.34;;;14.12;80.00
52719;BME280;38616;42.140;24.760;2022-11-20T03:11:34;98901.47;;;13.86;79.89
52719;BME280;38616;42.140;24.760;2022-11-20T03:14:05;98934.41;;;14.16;80.14
52719;BME280;38616;42.140;24.760;2022-11-20T03:16:31;98927.81;;;14.26;78.68
52719;BME280;38616;42.140;24.760;2022-11-20T03:18:57;98931.38;;;14.09;78.38
52719;BME280;38616;42.140;24.760;2022-11-20T03:21:23;98932.91;;;13.83;80.75
52719;BME280;38616;42.140;24.760;2022-11-20T03:23:48;98932.91;;;13.66;81.44
52719;BME280;38616;42.140;24.760;2022-11-20T03:26:19;98915.69;;;13.56;82.76
52719;BME280;38616;42.140;24.760;2022-11-20T03:28:53;98909.94;;;13.84;81.23
52719;BME280;38616;42.140;24.760;2022-11-20T03:31:21;98919.41;;;13.69;81.79
52719;BME280;38616;42.140;24.760;2022-11-20T03:33:47;98908.50;;;13.69;81.49
52719;BME280;38616;42.140;24.760;2022-11-20T03:36:14;98908.34;;;13.74;81.59
52719;BME280;38616;42.140;24.760;2022-11-20T03:38:40;98927.66;;;14.13;79.48
52719;BME280;38616;42.140;24.760;2022-11-20T03:41:09;98914.97;;;14.26;78.63
52719;BME280;38616;42.140;24.760;2022-11-20T03:43:35;98921.50;;;13.64;81.69
52719;BME280;38616;42.140;24.760;2022-11-20T03:46:01;98932.09;;;13.74;81.77
52719;BME280;38616;42.140;24.760;2022-11-20T03:48:27;98930.19;;;13.74;82.22
52719;BME280;38616;42.140;24.760;2022-11-20T03:53:34;98918.78;;;13.81;83.11
52719;BME280;38616;42.140;24.760;2022-11-20T03:55:59;98921.06;;;13.88;83.27
52719;BME280;38616;42.140;24.760;2022-11-20T03:58:25;98937.38;;;13.62;83.46
52719;BME280;38616;42.140;24.760;2022-11-20T04:00:50;98914.19;;;13.41;85.96
52719;BME280;38616;42.140;24.760;2022-11-20T04:03:15;98915.25;;;13.81;84.08
52719;BME280;38616;42.140;24.760;2022-11-20T04:05:41;98927.66;;;14.04;82.60
52719;BME280;38616;42.140;24.760;2022-11-20T04:08:06;98925.56;;;14.01;82.49
52719;BME280;38616;42.140;24.760;2022-11-20T04:10:32;98929.44;;;14.00;82.83
52719;BME280;38616;42.140;24.760;2022-11-20T04:12:57;98925.00;;;13.64;84.55
52719;BME280;38616;42.140;24.760;2022-11-20T04:15:22;98925.84;;;13.82;84.61
52719;BME280;38616;42.140;24.760;2022-11-20T04:17:48;98936.91;;;13.68;84.95
52719;BME280;38616;42.140;24.760;2022-11-20T04:20:13;98934.19;;;13.77;86.56
52719;BME280;38616;42.140;24.760;2022-11-20T04:22:39;98939.78;;;13.72;86.43
52719;BME280;38616;42.140;24.760;2022-11-20T04:25:05;98940.53;;;14.13;85.47
52719;BME280;38616;42.140;24.760;2022-11-20T04:27:30;98938.88;;;14.03;84.80
52719;BME280;38616;42.140;24.760;2022-11-20T04:29:56;98936.00;;;14.17;84.93
52719;BME280;38616;42.140;24.760;2022-11-20T04:32:21;98933.13;;;14.31;83.28
52719;BME280;38616;42.140;24.760;2022-11-20T04:34:47;98931.34;;;14.17;83.27
52719;BME280;38616;42.140;24.760;2022-11-20T04:37:12;98923.44;;;13.89;85.46
52719;BME280;38616;42.140;24.760;2022-11-20T04:39:37;98936.47;;;13.93;86.87
52719;BME280;38616;42.140;24.760;2022-11-20T04:42:03;98918.47;;;13.92;86.59
52719;BME280;38616;42.140;24.760;2022-11-20T04:44:47;98927.44;;;13.74;88.64
52719;BME280;38616;42.140;24.760;2022-11-20T04:47:12;98921.03;;;13.79;88.94
52719;BME280;38616;42.140;24.760;2022-11-20T04:49:37;98940.66;;;13.90;88.25
52719;BME280;38616;42.140;24.760;2022-11-20T04:52:03;98940.34;;;14.09;87.64
52719;BME280;38616;42.140;24.760;2022-11-20T04:54:28;98938.56;;;14.22;86.78
52719;BME280;38616;42.140;24.760;2022-11-20T04:56:54;98938.09;;;14.20;85.94
52719;BME280;38616;42.140;24.760;2022-11-20T04:59:19;98942.59;;;14.16;86.06
52719;BME280;38616;42.140;24.760;2022-11-20T05:01:44;98946.94;;;14.08;86.54
52719;BME280;38616;42.140;24.760;2022-11-20T05:04:10;98940.03;;;14.28;85.98
52719;BME280;38616;42.140;24.760;2022-11-20T05:06:35;98919.16;;;14.41;84.92
52719;BME280;38616;42.140;24.760;2022-11-20T05:09:01;98932.31;;;14.48;84.31
52719;BME280;38616;42.140;24.760;2022-11-20T05:11:27;98934.06;;;14.61;83.74
52719;BME280;38616;42.140;24.760;2022-11-20T05:13:54;98936.31;;;14.68;82.57
52719;BME280;38616;42.140;24.760;2022-11-20T05:16:22;98955.00;;;14.75;80.70
52719;BME280;38616;42.140;24.760;2022-11-20T05:18:48;98946.16;;;14.52;81.75
52719;BME280;38616;42.140;24.760;2022-11-20T05:21:14;98939.22;;;14.54;82.23
52719;BME280;38616;42.140;24.760;2022-11-20T05:23:40;98942.63;;;14.42;83.55
52719;BME280;38616;42.140;24.760;2022-11-20T05:26:07;98941.78;;;14.42;82.78
52719;BME280;38616;42.140;24.760;2022-11-20T05:28:34;98950.66;;;14.47;82.44
52719;BME280;38616;42.140;24.760;2022-11-20T05:31:11;98935.69;;;14.54;82.46
52719;BME280;38616;42.140;24.760;2022-11-20T05:33:40;98934.88;;;14.36;83.60
52719;BME280;38616;42.140;24.760;2022-11-20T05:36:06;98945.00;;;14.44;82.86
52719;BME280;38616;42.140;24.760;2022-11-20T05:38:32;98944.38;;;14.29;82.86
52719;BME280;38616;42.140;24.760;2022-11-20T05:41:05;98943.25;;;14.57;82.73
52719;BME280;38616;42.140;24.760;2022-11-20T05:43:33;98936.50;;;14.45;81.94
52719;BME280;38616;42.140;24.760;2022-11-20T05:45:59;98926.06;;;14.47;82.43
52719;BME280;38616;42.140;24.760;2022-11-20T05:48:24;98944.19;;;14.61;81.47
52719;BME280;38616;42.140;24.760;2022-11-20T05:50:50;98949.53;;;14.31;82.41
52719;BME280;38616;42.140;24.760;2022-11-20T05:53:15;98957.56;;;14.45;82.40
52719;BME280;38616;42.140;24.760;2022-11-20T05:55:41;98952.56;;;14.47;82.09
52719;BME280;38616;42.140;24.760;2022-11-20T05:58:06;98955.13;;;14.52;81.65
52719;BME280;38616;42.140;24.760;2022-11-20T06:00:31;98952.22;;;14.66;80.81
52719;BME280;38616;42.140;24.760;2022-11-20T06:02:57;98954.19;;;14.39;81.44
52719;BME280;38616;42.140;24.760;2022-11-20T06:05:22;98968.31;;;14.32;81.58
52719;BME280;38616;42.140;24.760;2022-11-20T06:07:47;98961.91;;;14.37;81.35
52719;BME280;38616;42.140;24.760;2022-11-20T06:10:13;98944.38;;;14.29;81.56
52719;BME280;38616;42.140;24.760;2022-11-20T06:12:38;98973.25;;;13.14;86.80
52719;BME280;38616;42.140;24.760;2022-11-20T06:15:04;98972.09;;;12.02;89.49
52719;BME280;38616;42.140;24.760;2022-11-20T06:17:30;98938.16;;;12.22;93.34
52719;BME280;38616;42.140;24.760;2022-11-20T06:19:55;98933.78;;;13.43;89.09
52719;BME280;38616;42.140;24.760;2022-11-20T06:22:21;98948.53;;;14.00;86.21
52719;BME280;38616;42.140;24.760;2022-11-20T06:24:47;98971.03;;;14.15;84.02
52719;BME280;38616;42.140;24.760;2022-11-20T06:27:12;98968.00;;;13.27;87.43
52719;BME280;38616;42.140;24.760;2022-11-20T06:29:38;98978.72;;;13.14;89.00
52719;BME280;38616;42.140;24.760;2022-11-20T06:32:03;98989.31;;;13.88;86.75
52719;BME280;38616;42.140;24.760;2022-11-20T06:34:29;98977.16;;;13.54;84.20
52719;BME280;38616;42.140;24.760;2022-11-20T06:36:54;98966.38;;;13.17;88.72
52719;BME280;38616;42.140;24.760;2022-11-20T06:39:19;98977.88;;;13.05;89.77
52719;BME280;38616;42.140;24.760;2022-11-20T06:41:45;98976.94;;;13.82;87.31
52719;BME280;38616;42.140;24.760;2022-11-20T06:44:10;98976.19;;;14.08;85.47
52719;BME280;38616;42.140;24.760;2022-11-20T06:46:36;98990.31;;;14.10;84.34
52719;BME280;38616;42.140;24.760;2022-11-20T06:49:01;98977.06;;;13.77;85.47
52719;BME280;38616;42.140;24.760;2022-11-20T06:51:27;98980.22;;;13.52;87.80
52719;BME280;38616;42.140;24.760;2022-11-20T06:53:53;98962.19;;;14.09;85.63
52719;BME280;38616;42.140;24.760;2022-11-20T06:56:18;98977.81;;;14.35;83.29
52719;BME280;38616;42.140;24.760;2022-11-20T06:58:44;98985.19;;;14.52;82.65
52719;BME280;38616;42.140;24.760;2022-11-20T07:01:11;98995.78;;;13.29;84.09
52719;BME280;38616;42.140;24.760;2022-11-20T07:03:37;98998.00;;;13.50;85.58
52719;BME280;38616;42.140;24.760;2022-11-20T07:06:04;98992.22;;;14.00;85.49
52719;BME280;38616;42.140;24.760;2022-11-20T07:08:29;98967.22;;;14.42;83.23
52719;BME280;38616;42.140;24.760;2022-11-20T07:10:59;98984.59;;;14.73;81.36
52719;BME280;38616;42.140;24.760;2022-11-20T07:13:26;98988.34;;;13.93;81.67
52719;BME280;38616;42.140;24.760;2022-11-20T07:15:51;98994.69;;;13.62;78.54
52719;BME280;38616;42.140;24.760;2022-11-20T07:18:17;98985.00;;;14.13;83.65
52719;BME280;38616;42.140;24.760;2022-11-20T07:20:42;98996.81;;;14.84;80.71
52719;BME280;38616;42.140;24.760;2022-11-20T07:23:07;98988.28;;;14.51;81.62
52719;BME280;38616;42.140;24.760;2022-11-20T07:25:33;98957.69;;;14.22;83.21
52719;BME280;38616;42.140;24.760;2022-11-20T07:27:59;98986.47;;;14.28;82.12
52719;BME280;38616;42.140;24.760;2022-11-20T07:30:25;98997.56;;;13.65;83.47
52719;BME280;38616;42.140;24.760;2022-11-20T07:32:51;98997.00;;;13.86;83.99
52719;BME280;38616;42.140;24.760;2022-11-20T07:35:17;99004.97;;;14.58;81.56
52719;BME280;38616;42.140;24.760;2022-11-20T07:37:42;99013.22;;;14.84;80.55
52719;BME280;38616;42.140;24.760;2022-11-20T07:40:08;99007.41;;;14.95;79.61
52719;BME280;38616;42.140;24.760;2022-11-20T07:42:33;99025.41;;;14.60;78.49
52719;BME280;38616;42.140;24.760;2022-11-20T07:44:59;99013.94;;;14.06;82.16
52719;BME280;38616;42.140;24.760;2022-11-20T07:47:24;99008.00;;;14.12;82.43
52719;BME280;38616;42.140;24.760;2022-11-20T07:49:50;99011.88;;;14.64;81.54
52719;BME280;38616;42.140;24.760;2022-11-20T07:52:15;99008.69;;;14.88;80.18
52719;BME280;38616;42.140;24.760;2022-11-20T07:54:40;99004.03;;;15.45;78.28
52719;BME280;38616;42.140;24.760;2022-11-20T07:57:06;99009.00;;;14.87;78.49
52719;BME280;38616;42.140;24.760;2022-11-20T07:59:31;99006.19;;;13.90;82.38
52719;BME280;38616;42.140;24.760;2022-11-20T08:01:56;99000.56;;;14.04;84.57
52719;BME280;38616;42.140;24.760;2022-11-20T08:04:22;98998.53;;;14.62;82.33
52719;BME280;38616;42.140;24.760;2022-11-20T08:06:48;99004.19;;;14.92;81.31
52719;BME280;38616;42.140;24.760;2022-11-20T08:09:14;99006.38;;;15.17;79.65
52719;BME280;38616;42.140;24.760;2022-11-20T08:11:39;99005.44;;;14.60;78.99
52719;BME280;38616;42.140;24.760;2022-11-20T08:14:23;99001.97;;;13.84;80.26
52719;BME280;38616;42.140;24.760;2022-11-20T08:16:49;99008.31;;;14.19;83.16
52719;BME280;38616;42.140;24.760;2022-11-20T08:19:16;98998.38;;;14.68;81.61
52719;BME280;38616;42.140;24.760;2022-11-20T08:21:43;98992.06;;;15.20;79.26
52719;BME280;38616;42.140;24.760;2022-11-20T08:24:09;98989.94;;;15.26;78.08
52719;BME280;38616;42.140;24.760;2022-11-20T08:26:36;98995.06;;;13.78;80.38
52719;BME280;38616;42.140;24.760;2022-11-20T08:29:02;99011.28;;;13.83;81.10
52719;BME280;38616;42.140;24.760;2022-11-20T08:31:28;99018.47;;;14.63;82.21
52719;BME280;38616;42.140;24.760;2022-11-20T08:33:54;99002.34;;;15.23;79.72
52719;BME280;38616;42.140;24.760;2022-11-20T08:36:21;98991.19;;;15.37;77.66
52719;BME280;38616;42.140;24.760;2022-11-20T08:38:51;98980.53;;;15.83;76.40
52719;BME280;38616;42.140;24.760;2022-11-20T08:41:17;98986.16;;;14.65;77.74
52719;BME280;38616;42.140;24.760;2022-11-20T08:44:05;98974.41;;;14.29;79.82
52719;BME280;38616;42.140;24.760;2022-11-20T08:46:39;98973.88;;;15.15;79.15
52719;BME280;38616;42.140;24.760;2022-11-20T08:49:08;98976.72;;;15.75;76.58
52719;BME280;38616;42.140;24.760;2022-11-20T08:51:34;98973.66;;;16.28;74.10
52719;BME280;38616;42.140;24.760;2022-11-20T08:53:59;98962.28;;;16.60;72.17
52719;BME280;38616;42.140;24.760;2022-11-20T08:56:25;98975.34;;;16.96;70.83
52719;BME280;38616;42.140;24.760;2022-11-20T08:58:51;98979.00;;;15.26;75.75
52719;BME280;38616;42.140;24.760;2022-11-20T09:01:18;98966.44;;;15.63;76.83
52719;BME280;38616;42.140;24.760;2022-11-20T09:03:43;98973.13;;;16.56;72.86
52719;BME280;38616;42.140;24.760;2022-11-20T09:06:09;98960.69;;;16.92;69.74
52719;BME280;38616;42.140;24.760;2022-11-20T09:08:34;98955.59;;;17.03;68.31
52719;BME280;38616;42.140;24.760;2022-11-20T09:11:01;98973.84;;;17.45;67.56
52719;BME280;38616;42.140;24.760;2022-11-20T09:13:28;98967.19;;;17.96;66.18
52719;BME280;38616;42.140;24.760;2022-11-20T09:16:04;98970.31;;;16.44;71.04
52719;BME280;38616;42.140;24.760;2022-11-20T09:18:30;98963.63;;;16.75;71.10
52719;BME280;38616;42.140;24.760;2022-11-20T09:21:02;98957.50;;;17.49;68.24
52719;BME280;38616;42.140;24.760;2022-11-20T09:23:32;98950.16;;;17.53;67.60
52719;BME280;38616;42.140;24.760;2022-11-20T09:26:02;98954.06;;;17.89;67.32
52719;BME280;38616;42.140;24.760;2022-11-20T09:28:27;98942.25;;;17.76;66.71
52719;BME280;38616;42.140;24.760;2022-11-20T09:30:52;98936.31;;;17.86;67.04
52719;BME280;38616;42.140;24.760;2022-11-20T09:33:18;98933.78;;;18.06;66.78
52719;BME280;38616;42.140;24.760;2022-11-20T09:35:44;98918.66;;;18.12;67.00
52719;BME280;38616;42.140;24.760;2022-11-20T09:38:10;98934.34;;;18.12;67.48
52719;BME280;38616;42.140;24.760;2022-11-20T09:40:39;98922.97;;;18.26;66.82
52719;BME280;38616;42.140;24.760;2022-11-20T09:46:18;98902.06;;;18.66;64.99
52719;BME280;38616;42.140;24.760;2022-11-20T09:51:53;98894.00;;;17.63;69.97
52719;BME280;38616;42.140;24.760;2022-11-20T09:54:29;98883.94;;;18.49;66.64
52719;BME280;38616;42.140;24.760;2022-11-20T09:57:08;98884.84;;;18.97;64.71
52719;BME280;38616;42.140;24.760;2022-11-20T09:59:39;98879.50;;;19.37;62.69
52719;BME280;38616;42.140;24.760;2022-11-20T10:02:29;98893.59;;;19.51;62.18
52719;BME280;38616;42.140;24.760;2022-11-20T10:10:45;98902.72;;;19.71;60.60
52719;BME280;38616;42.140;24.760;2022-11-20T10:13:33;98899.16;;;19.71;60.52
52719;BME280;38616;42.140;24.760;2022-11-20T10:16:20;98882.38;;;19.60;61.12
52719;BME280;38616;42.140;24.760;2022-11-20T10:22:01;98885.94;;;17.82;66.25
52719;BME280;38616;42.140;24.760;2022-11-20T10:30:15;98858.53;;;19.32;63.46
52719;BME280;38616;42.140;24.760;2022-11-20T10:32:52;98858.50;;;19.48;62.94
52719;BME280;38616;42.140;24.760;2022-11-20T10:35:35;98857.66;;;19.63;62.11
52719;BME280;38616;42.140;24.760;2022-11-20T10:38:09;98858.56;;;19.87;61.57
52719;BME280;38616;42.140;24.760;2022-11-20T10:40:41;98846.91;;;19.74;62.09
52719;BME280;38616;42.140;24.760;2022-11-20T10:43:24;98845.81;;;19.79;61.99
52719;BME280;38616;42.140;24.760;2022-11-20T10:45:58;98850.22;;;19.64;62.83
52719;BME280;38616;42.140;24.760;2022-11-20T10:48:27;98848.78;;;19.34;64.18
52719;BME280;38616;42.140;24.760;2022-11-20T10:54:29;98836.03;;;19.46;64.32
52719;BME280;38616;42.140;24.760;2022-11-20T10:57:48;98832.72;;;19.56;63.08
52719;BME280;38616;42.140;24.760;2022-11-20T11:00:07;98835.91;;;19.58;62.82
52719;BME280;38616;42.140;24.760;2022-11-20T11:03:00;98841.41;;;19.58;63.02
52719;BME280;38616;42.140;24.760;2022-11-20T11:05:48;98837.06;;;19.57;63.32
52719;BME280;38616;42.140;24.760;2022-11-20T11:08:17;98833.19;;;19.78;62.76
52719;BME280;38616;42.140;24.760;2022-11-20T11:10:59;98835.69;;;19.47;63.80
52719;BME280;38616;42.140;24.760;2022-11-20T11:13:30;98836.03;;;17.80;69.76
52719;BME280;38616;42.140;24.760;2022-11-20T11:15:57;98813.41;;;18.56;67.52
52719;BME280;38616;42.140;24.760;2022-11-20T11:18:31;98810.69;;;18.88;65.55
52719;BME280;38616;42.140;24.760;2022-11-20T11:20:59;98798.88;;;19.20;63.91
52719;BME280;38616;42.140;24.760;2022-11-20T11:23:45;98795.53;;;19.46;63.79
52719;BME280;38616;42.140;24.760;2022-11-20T11:26:21;98796.63;;;19.42;62.29
52719;BME280;38616;42.140;24.760;2022-11-20T11:29:00;98784.72;;;19.57;60.74
52719;BME280;38616;42.140;24.760;2022-11-20T11:31:31;98772.28;;;19.83;57.89
52719;BME280;38616;42.140;24.760;2022-11-20T11:34:23;98790.88;;;20.06;60.09
52719;BME280;38616;42.140;24.760;2022-11-20T11:36:59;98793.09;;;19.81;61.31
52719;BME280;38616;42.140;24.760;2022-11-20T11:39:27;98800.69;;;19.87;60.36
52719;BME280;38616;42.140;24.760;2022-11-20T11:41:54;98791.69;;;19.71;61.21
52719;BME280;38616;42.140;24.760;2022-11-20T11:44:21;98798.44;;;18.09;65.29
52719;BME280;38616;42.140;24.760;2022-11-20T11:50:27;98804.75;;;19.02;64.76
52719;BME280;38616;42.140;24.760;2022-11-20T11:58:02;98804.81;;;19.58;62.95
52719;BME280;38616;42.140;24.760;2022-11-20T12:00:32;98801.69;;;19.59;62.88
52719;BME280;38616;42.140;24.760;2022-11-20T12:03:05;98811.94;;;19.59;62.91
52719;BME280;38616;42.140;24.760;2022-11-20T12:06:11;98794.16;;;19.56;63.06
52719;BME280;38616;42.140;24.760;2022-11-20T12:11:38;98797.28;;;19.55;63.29
52719;BME280;38616;42.140;24.760;2022-11-20T12:14:18;98797.88;;;19.28;63.82
52719;BME280;38616;42.140;24.760;2022-11-20T12:16:50;98795.28;;;17.82;66.63
52719;BME280;38616;42.140;24.760;2022-11-20T12:19:16;98791.28;;;18.21;68.61
52719;BME280;38616;42.140;24.760;2022-11-20T12:24:57;98775.25;;;19.19;64.59
52719;BME280;38616;42.140;24.760;2022-11-20T12:30:17;98776.56;;;19.81;60.97
52719;BME280;38616;42.140;24.760;2022-11-20T12:41:11;98770.63;;;19.98;57.76
52719;BME280;38616;42.140;24.760;2022-11-20T12:53:11;98759.00;;;19.89;54.02
52719;BME280;38616;42.140;24.760;2022-11-20T13:01:25;98764.50;;;20.51;50.28
52719;BME280;38616;42.140;24.760;2022-11-20T13:06:53;98769.72;;;20.80;48.92
52719;BME280;38616;42.140;24.760;2022-11-20T13:09:20;98766.94;;;20.57;51.49
52719;BME280;38616;42.140;24.760;2022-11-20T13:12:11;98771.19;;;20.50;49.68
52719;BME280;38616;42.140;24.760;2022-11-20T13:19:54;98783.09;;;20.12;47.69
52719;BME280;38616;42.140;24.760;2022-11-20T13:22:31;98785.03;;;20.31;47.85
52719;BME280;38616;42.140;24.760;2022-11-20T13:25:09;98795.13;;;20.46;48.19
52719;BME280;38616;42.140;24.760;2022-11-20T13:27:35;98792.34;;;20.66;48.54
52719;BME280;38616;42.140;24.760;2022-11-20T13:30:15;98792.03;;;20.71;48.62
52719;BME280;38616;42.140;24.760;2022-11-20T13:33:43;98793.03;;;20.59;46.37
52719;BME280;38616;42.140;24.760;2022-11-20T13:35:42;98788.53;;;20.51;45.43
52719;BME280;38616;42.140;24.760;2022-11-20T13:38:13;98798.91;;;20.81;45.01
52719;BME280;38616;42.140;24.760;2022-11-20T13:40:56;98800.56;;;20.86;45.11
52719;BME280;38616;42.140;24.760;2022-11-20T13:43:35;98808.47;;;20.64;45.25
52719;BME280;38616;42.140;24.760;2022-11-20T13:46:04;98802.59;;;20.65;45.48
52719;BME280;38616;42.140;24.760;2022-11-20T13:48:42;98816.38;;;20.65;45.39
52719;BME280;38616;42.140;24.760;2022-11-20T13:59:49;98832.38;;;20.56;45.63
52719;BME280;38616;42.140;24.760;2022-11-20T14:02:19;98845.22;;;20.48;45.95
52719;BME280;38616;42.140;24.760;2022-11-20T14:04:50;98845.75;;;19.95;48.73
52719;BME280;38616;42.140;24.760;2022-11-20T14:07:17;98870.16;;;19.77;50.45
52719;BME280;38616;42.140;24.760;2022-11-20T14:09:55;98852.50;;;19.26;53.35
52719;BME280;38616;42.140;24.760;2022-11-20T14:12:26;98854.09;;;18.95;53.68
52719;BME280;38616;42.140;24.760;2022-11-20T14:14:53;98848.72;;;18.99;53.82
52719;BME280;38616;42.140;24.760;2022-11-20T14:19:49;98848.19;;;18.49;53.63
52719;BME280;38616;42.140;24.760;2022-11-20T14:22:22;98845.47;;;18.65;52.93
52719;BME280;38616;42.140;24.760;2022-11-20T14:24:59;98842.16;;;18.59;52.50
52719;BME280;38616;42.140;24.760;2022-11-20T14:27:26;98839.25;;;18.52;52.75